Cherry Creek, Idaho
Current Conditions -  °F | °C
As of 4:51 PM on Wednesday 22 Oct 2014 (Local Time) from KLGU Reporting Station
Clear Clear  
Wind Chill: 59°   Ceiling: Unl
Heat Index: 59°   Visibility: 10mi
Dew Point: 25°   Wind: 5mph
Humidity: 27%   Direction: 280°W
Pressure: 30.17"   Gusts: NA
Location:  42.2285°N, 112.313°W
Report Text: KLGU 222251Z AUTO 28004KT 10SM CLR 15/M04 A3017 RMK AO2 SLP211 T01501039 TSNO
Loading
Personal Weather Stations






























Interactive Weather Map
Tropical Storm Tracking
New forecast layout! Learn more

10-Day Weather Forecast

Advertisements
Track Severe Weather on mobile